createdAt,value
2022-09-20T00:01:27.290Z,7.38
2022-09-20T00:03:59.723Z,6.75
2022-09-20T00:06:29.687Z,6.93
2022-09-20T00:08:59.622Z,8.05
2022-09-20T00:11:30.195Z,6.55
2022-09-20T00:14:00.526Z,7.35
2022-09-20T00:16:31.554Z,6.32
2022-09-20T00:19:04.196Z,7.70
2022-09-20T00:21:34.091Z,7.18
2022-09-20T00:24:02.322Z,6.70
2022-09-20T00:26:30.860Z,6.93
2022-09-20T00:28:59.564Z,7.28
2022-09-20T00:31:28.525Z,6.80
2022-09-20T00:34:14.230Z,6.30
2022-09-20T00:36:44.513Z,6.82
2022-09-20T00:39:14.713Z,6.65
2022-09-20T00:41:43.349Z,6.38
2022-09-20T00:44:48.854Z,6.53
2022-09-20T00:47:25.658Z,6.65
2022-09-20T00:49:58.883Z,5.72
2022-09-20T00:52:30.554Z,5.97
2022-09-20T00:55:00.913Z,6.75
2022-09-20T00:57:35.286Z,5.68
2022-09-20T01:00:07.874Z,5.93
2022-09-20T01:02:40.349Z,6.32
2022-09-20T01:05:10.584Z,5.45
2022-09-20T01:07:40.868Z,5.40
2022-09-20T01:10:09.571Z,5.45
2022-09-20T01:12:40.790Z,4.82
2022-09-20T01:15:10.801Z,5.43
2022-09-20T01:17:43.106Z,5.10
2022-09-20T01:20:17.358Z,5.45
2022-09-20T01:22:59.153Z,5.20
2022-09-20T01:25:43.103Z,5.35
2022-09-20T01:28:12.740Z,5.60
2022-09-20T01:30:47.062Z,5.03
2022-09-20T01:33:24.996Z,5.65
2022-09-20T01:35:55.856Z,5.18
2022-09-20T01:38:37.344Z,5.10
2022-09-20T01:41:12.471Z,5.03
2022-09-20T01:43:50.108Z,5.30
2022-09-20T01:46:30.138Z,4.95
2022-09-20T01:49:12.449Z,5.53
2022-09-20T01:52:24.472Z,4.55
2022-09-20T01:58:10.856Z,5.38
2022-09-20T02:01:00.251Z,4.63
2022-09-20T02:04:06.772Z,4.78
2022-09-20T02:06:51.905Z,4.55
2022-09-20T02:09:43.018Z,4.43
2022-09-20T02:12:43.768Z,5.13
2022-09-20T02:15:27.001Z,4.70
2022-09-20T02:18:09.013Z,4.30
2022-09-20T02:20:47.946Z,4.75
2022-09-20T02:23:29.261Z,4.68
2022-09-20T02:26:11.028Z,4.88
2022-09-20T02:28:56.047Z,4.18
2022-09-20T02:31:55.396Z,4.30
2022-09-20T02:34:43.310Z,4.38
2022-09-20T02:37:33.195Z,4.18
2022-09-20T02:40:15.120Z,4.05
2022-09-20T02:42:48.842Z,4.25
2022-09-20T02:45:25.634Z,4.13
2022-09-20T02:47:57.851Z,4.00
2022-09-20T02:50:38.752Z,3.38
2022-09-20T02:53:24.599Z,3.73
2022-09-20T02:56:04.642Z,4.10
2022-09-20T02:58:43.695Z,4.05
2022-09-20T03:01:24.068Z,3.95
2022-09-20T03:04:03.515Z,4.68
2022-09-20T03:06:44.892Z,3.97
2022-09-20T03:09:20.578Z,3.92
2022-09-20T03:12:01.605Z,4.28
2022-09-20T03:14:37.103Z,4.13
2022-09-20T03:17:19.876Z,4.68
2022-09-20T03:20:09.720Z,3.83
2022-09-20T03:22:50.002Z,4.18
2022-09-20T03:25:35.309Z,4.05
2022-09-20T03:28:14.221Z,3.78
2022-09-20T03:30:56.323Z,3.47
2022-09-20T03:33:35.093Z,3.65
2022-09-20T03:36:16.456Z,4.07
2022-09-20T03:39:03.544Z,4.22
2022-09-20T03:41:59.549Z,4.30
2022-09-20T03:44:42.574Z,4.47
2022-09-20T03:47:28.214Z,3.95
2022-09-20T03:50:21.482Z,4.55
2022-09-20T03:53:13.793Z,3.85
2022-09-20T03:56:02.736Z,5.05
2022-09-20T03:58:45.586Z,3.90
2022-09-20T04:01:32.723Z,5.10
2022-09-20T04:04:09.133Z,4.25
2022-09-20T04:06:54.701Z,4.25
2022-09-20T04:10:03.877Z,4.47
2022-09-20T04:12:46.006Z,4.38
2022-09-20T04:15:30.564Z,4.53
2022-09-20T04:18:05.407Z,4.60
2022-09-20T04:20:44.335Z,4.38
2022-09-20T04:23:26.903Z,4.38
2022-09-20T04:28:29.865Z,4.15
2022-09-20T04:31:07.310Z,4.82
2022-09-20T04:33:41.258Z,4.50
2022-09-20T04:36:29.453Z,4.30
2022-09-20T04:39:08.443Z,4.28
2022-09-20T04:42:09.300Z,4.45
2022-09-20T04:45:11.494Z,6.03
2022-09-20T04:48:06.936Z,4.85
2022-09-20T04:51:01.482Z,4.55
2022-09-20T04:53:44.854Z,4.70
2022-09-20T04:56:22.193Z,4.57
2022-09-20T04:59:00.468Z,3.35
2022-09-20T05:02:08.008Z,4.75
2022-09-20T05:05:06.358Z,5.40
2022-09-20T05:08:24.597Z,4.45
2022-09-20T05:11:32.067Z,4.40
2022-09-20T05:14:24.942Z,4.57
2022-09-20T05:17:08.163Z,4.82
2022-09-20T05:19:56.057Z,4.72
2022-09-20T05:22:45.230Z,5.00
2022-09-20T05:25:45.286Z,5.10
2022-09-20T05:28:22.898Z,5.43
2022-09-20T05:30:54.328Z,5.20
2022-09-20T05:33:29.832Z,5.40
2022-09-20T05:36:09.967Z,5.00
2022-09-20T05:38:48.670Z,5.03
2022-09-20T05:41:25.267Z,5.00
2022-09-20T05:44:03.350Z,5.38
2022-09-20T05:46:42.370Z,5.35
2022-09-20T05:49:19.356Z,5.38
2022-09-20T05:52:08.604Z,5.82
2022-09-20T05:55:07.667Z,5.63
2022-09-20T05:57:49.128Z,5.68
2022-09-20T06:00:21.040Z,5.68
2022-09-20T06:02:59.560Z,5.85
2022-09-20T06:05:36.258Z,6.00
2022-09-20T06:08:31.066Z,5.22
2022-09-20T06:11:10.272Z,5.50
2022-09-20T06:13:52.136Z,5.63
2022-09-20T06:16:30.023Z,5.68
2022-09-20T06:19:06.329Z,5.90
2022-09-20T06:21:43.920Z,5.15
2022-09-20T06:24:32.640Z,5.70
2022-09-20T06:27:05.260Z,6.30
2022-09-20T06:29:36.668Z,6.35
2022-09-20T06:32:04.902Z,5.57
2022-09-20T06:34:33.546Z,6.70
2022-09-20T06:37:29.207Z,5.90
2022-09-20T06:40:25.329Z,5.25
2022-09-20T06:42:54.029Z,5.82
2022-09-20T06:45:22.180Z,6.55
2022-09-20T06:47:50.379Z,7.85
2022-09-20T06:50:19.545Z,8.30
2022-09-20T06:52:47.816Z,8.48
2022-09-20T06:55:27.203Z,6.53
2022-09-20T06:57:57.159Z,6.45
2022-09-20T07:00:25.503Z,5.95
2022-09-20T07:02:54.041Z,5.57
2022-09-20T07:05:22.318Z,5.70
2022-09-20T07:07:50.397Z,5.18
2022-09-20T07:10:19.836Z,5.40
2022-09-20T07:12:48.066Z,6.15
2022-09-20T07:15:17.076Z,5.35
2022-09-20T07:17:45.964Z,5.75
2022-09-20T07:20:16.555Z,6.00
2022-09-20T07:22:49.301Z,5.80
2022-09-20T07:25:18.441Z,6.10
2022-09-20T07:27:48.430Z,5.25
2022-09-20T07:30:16.637Z,5.93
2022-09-20T07:32:44.932Z,5.30
2022-09-20T07:35:13.663Z,5.95
2022-09-20T07:37:42.415Z,5.88
2022-09-20T07:40:12.252Z,4.88
2022-09-20T07:42:40.470Z,6.22
2022-09-20T07:45:13.415Z,6.43
2022-09-20T07:47:42.285Z,6.40
2022-09-20T07:50:11.308Z,5.57
2022-09-20T07:52:39.604Z,6.50
2022-09-20T07:55:08.345Z,5.95
2022-09-20T07:57:38.076Z,6.40
2022-09-20T08:00:08.649Z,6.05
2022-09-20T08:02:38.155Z,6.43
2022-09-20T08:05:06.818Z,6.38
2022-09-20T08:07:34.974Z,6.35
2022-09-20T08:10:03.119Z,6.15
2022-09-20T08:15:21.135Z,6.18
2022-09-20T08:17:50.811Z,6.25
2022-09-20T08:20:19.552Z,5.90
2022-09-20T08:23:06.274Z,6.00
2022-09-20T08:25:36.394Z,5.93
2022-09-20T08:28:04.592Z,6.10
2022-09-20T08:30:32.689Z,6.55
2022-09-20T08:33:05.091Z,6.45
2022-09-20T08:35:38.148Z,6.70
2022-09-20T08:40:59.646Z,5.68
2022-09-20T08:43:32.188Z,6.43
2022-09-20T08:46:05.507Z,5.88
2022-09-20T08:48:35.555Z,6.53
2022-09-20T08:51:06.035Z,6.85
2022-09-20T08:53:35.441Z,5.88
2022-09-20T08:56:04.829Z,6.00
2022-09-20T08:58:33.147Z,6.47
2022-09-20T09:01:02.042Z,6.18
2022-09-20T09:03:30.147Z,6.80
2022-09-20T09:06:01.328Z,5.55
2022-09-20T09:08:38.258Z,5.95
2022-09-20T09:11:10.076Z,6.43
2022-09-20T09:13:45.631Z,5.55
2022-09-20T09:16:22.523Z,6.15
2022-09-20T09:18:53.215Z,5.57
2022-09-20T09:21:25.226Z,6.07
2022-09-20T09:23:58.029Z,6.03
2022-09-20T09:26:27.096Z,5.32
2022-09-20T09:29:17.147Z,4.93
2022-09-20T09:31:47.026Z,5.80
2022-09-20T09:34:25.408Z,5.45
2022-09-20T09:36:56.036Z,5.55
2022-09-20T09:39:26.856Z,5.90
2022-09-20T09:41:55.645Z,5.13
2022-09-20T09:44:27.865Z,5.43
2022-09-20T09:46:57.618Z,5.35
2022-09-20T09:49:27.608Z,5.75
2022-09-20T09:52:13.122Z,5.13
2022-09-20T09:54:44.748Z,4.93
2022-09-20T09:57:28.955Z,5.05
2022-09-20T10:00:16.213Z,4.82
2022-09-20T10:03:17.319Z,5.00
2022-09-20T10:05:56.957Z,4.60
2022-09-20T10:08:41.011Z,4.65
2022-09-20T10:11:20.520Z,4.28
2022-09-20T10:13:58.600Z,4.50
2022-09-20T10:16:34.090Z,4.43
2022-09-20T10:19:12.701Z,5.30
2022-09-20T10:21:52.557Z,4.53
2022-09-20T10:24:33.953Z,4.20
2022-09-20T10:27:23.275Z,4.57
2022-09-20T10:30:04.519Z,4.82
2022-09-20T10:32:54.057Z,4.07
2022-09-20T10:35:31.066Z,4.07
2022-09-20T10:38:14.252Z,4.43
2022-09-20T10:41:21.655Z,4.45
2022-09-20T10:44:05.726Z,4.75
2022-09-20T10:46:46.924Z,4.15
2022-09-20T10:49:36.862Z,5.18
2022-09-20T10:52:16.636Z,4.55
2022-09-20T10:55:04.648Z,4.63
2022-09-20T10:57:52.446Z,4.35
2022-09-20T11:00:23.942Z,4.45
2022-09-20T11:03:11.536Z,4.90
2022-09-20T11:05:48.602Z,4.43
2022-09-20T11:08:22.933Z,4.07
2022-09-20T11:10:55.713Z,4.80
2022-09-20T11:13:31.877Z,4.50
2022-09-20T11:16:06.130Z,4.85
2022-09-20T11:18:41.048Z,5.10
2022-09-20T11:21:16.684Z,4.95
2022-09-20T11:23:51.386Z,5.40
2022-09-20T11:26:29.274Z,4.68
2022-09-20T11:29:06.805Z,4.85
2022-09-20T11:31:40.333Z,4.60
2022-09-20T11:34:15.690Z,5.00
2022-09-20T11:36:52.406Z,5.10
2022-09-20T11:39:26.739Z,4.78
2022-09-20T11:42:00.034Z,4.57
2022-09-20T11:44:30.081Z,4.40
2022-09-20T11:47:04.530Z,4.55
2022-09-20T11:49:56.360Z,5.00
2022-09-20T11:52:41.127Z,4.78
2022-09-20T11:55:32.462Z,4.38
2022-09-20T11:58:03.599Z,5.82
2022-09-20T12:00:36.499Z,5.20
2022-09-20T12:03:07.590Z,4.60
2022-09-20T12:05:39.171Z,5.10
2022-09-20T12:10:40.471Z,4.85
2022-09-20T12:13:21.467Z,4.78
2022-09-20T12:16:00.735Z,4.70
2022-09-20T12:18:38.081Z,4.32
2022-09-20T12:21:15.942Z,5.15
2022-09-20T12:23:45.966Z,5.32
2022-09-20T12:26:38.893Z,5.28
2022-09-20T12:29:54.334Z,5.10
2022-09-20T12:32:47.021Z,5.18
2022-09-20T12:36:00.705Z,6.20
2022-09-20T12:38:38.151Z,6.20
2022-09-20T12:41:27.508Z,5.53
2022-09-20T12:44:00.662Z,5.00
2022-09-20T12:46:43.830Z,6.60
2022-09-20T12:49:52.819Z,5.70
2022-09-20T12:52:52.330Z,5.97
2022-09-20T12:55:43.898Z,6.07
2022-09-20T13:01:14.535Z,5.57
2022-09-20T13:06:27.220Z,5.53
2022-09-20T13:09:04.351Z,5.82
2022-09-20T13:11:39.846Z,5.55
2022-09-20T13:14:14.036Z,5.45
2022-09-20T13:16:52.248Z,5.45
2022-09-20T13:19:22.479Z,9.32
2022-09-20T13:21:57.847Z,7.70
2022-09-20T13:24:28.905Z,5.43
2022-09-20T13:27:02.627Z,4.85
2022-09-20T13:29:35.307Z,6.03
2022-09-20T13:32:17.717Z,5.32
2022-09-20T13:34:46.652Z,5.18
2022-09-20T13:37:21.129Z,5.75
2022-09-20T13:39:55.075Z,4.78
2022-09-20T13:42:23.909Z,5.88
2022-09-20T13:44:52.743Z,4.53
2022-09-20T13:47:26.250Z,4.85
2022-09-20T13:49:54.879Z,5.15
2022-09-20T13:52:30.532Z,6.43
2022-09-20T13:54:58.880Z,5.70
2022-09-20T13:57:29.292Z,5.32
2022-09-20T13:59:58.271Z,5.70
2022-09-20T14:02:31.011Z,5.95
2022-09-20T14:05:03.024Z,5.35
2022-09-20T14:07:33.993Z,5.32
2022-09-20T14:10:02.185Z,5.35
2022-09-20T14:12:30.628Z,5.68
2022-09-20T14:14:59.645Z,4.80
2022-09-20T14:17:33.355Z,4.90
2022-09-20T14:20:01.891Z,4.78
2022-09-20T14:22:30.788Z,4.75
2022-09-20T14:25:03.153Z,5.10
2022-09-20T14:27:32.102Z,4.82
2022-09-20T14:30:00.531Z,5.07
2022-09-20T14:32:42.629Z,4.97
2022-09-20T14:35:18.495Z,4.95
2022-09-20T14:37:49.712Z,8.20
2022-09-20T14:40:24.112Z,5.82
2022-09-20T14:42:55.505Z,6.68
2022-09-20T14:45:27.369Z,14.02
2022-09-20T14:48:06.728Z,6.82
2022-09-20T14:50:41.111Z,6.20
2022-09-20T14:53:28.238Z,6.78
2022-09-20T14:56:00.665Z,6.07
2022-09-20T14:58:29.030Z,7.68
2022-09-20T15:01:01.794Z,7.53
2022-09-20T15:03:34.146Z,7.90
2022-09-20T15:06:02.264Z,7.75
2022-09-20T15:08:30.555Z,7.78
2022-09-20T15:11:00.512Z,7.45
2022-09-20T15:13:28.735Z,6.55
2022-09-20T15:15:57.198Z,7.63
2022-09-20T15:18:27.535Z,6.60
2022-09-20T15:20:56.603Z,6.38
2022-09-20T15:23:25.353Z,6.68
2022-09-20T15:25:55.817Z,5.75
2022-09-20T15:28:26.819Z,5.87
2022-09-20T15:30:54.974Z,5.75
2022-09-20T15:33:23.295Z,6.55
2022-09-20T15:35:51.651Z,5.88
2022-09-20T15:38:20.556Z,6.28
2022-09-20T15:40:50.399Z,6.43
2022-09-20T15:43:21.938Z,5.97
2022-09-20T15:45:53.955Z,5.75
2022-09-20T15:48:24.265Z,6.07
2022-09-20T15:51:02.422Z,5.47
2022-09-20T15:53:33.613Z,5.35
2022-09-20T15:56:02.688Z,5.32
2022-09-20T15:58:35.898Z,5.75
2022-09-20T16:01:08.208Z,5.53
2022-09-20T16:03:37.660Z,6.13
2022-09-20T16:06:08.613Z,5.97
2022-09-20T16:08:38.456Z,5.35
2022-09-20T16:11:07.319Z,5.53
2022-09-20T16:13:36.416Z,6.32
2022-09-20T16:16:07.301Z,5.88
2022-09-20T16:18:54.519Z,5.53
2022-09-20T16:21:23.372Z,5.40
2022-09-20T16:23:53.339Z,5.55
2022-09-20T16:26:23.468Z,5.45
2022-09-20T16:28:52.071Z,5.47
2022-09-20T16:31:40.063Z,5.28
2022-09-20T16:34:14.037Z,5.82
2022-09-20T16:36:43.518Z,5.80
2022-09-20T16:39:13.192Z,5.07
2022-09-20T16:41:41.619Z,4.80
2022-09-20T16:44:09.842Z,5.05
2022-09-20T16:46:40.178Z,4.78
2022-09-20T16:49:11.713Z,4.80
2022-09-20T16:54:11.757Z,4.82
2022-09-20T16:56:42.303Z,5.43
2022-09-20T16:59:10.850Z,5.20
2022-09-20T17:01:42.595Z,4.43
2022-09-20T17:04:13.488Z,4.90
2022-09-20T17:06:43.285Z,4.18
2022-09-20T17:09:11.754Z,4.63
2022-09-20T17:11:41.961Z,4.03
2022-09-20T17:14:10.372Z,3.60
2022-09-20T17:16:41.758Z,3.70
2022-09-20T17:21:43.558Z,4.30
2022-09-20T17:24:12.002Z,3.90
2022-09-20T17:26:41.866Z,4.30
2022-09-20T17:29:14.040Z,4.15
2022-09-20T17:31:51.562Z,5.18
2022-09-20T17:34:22.823Z,4.32
2022-09-20T17:36:51.329Z,3.92
2022-09-20T17:39:20.034Z,4.22
2022-09-20T17:41:49.484Z,4.50
2022-09-20T17:44:18.124Z,4.45
2022-09-20T17:46:49.654Z,3.85
2022-09-20T17:49:20.013Z,4.40
2022-09-20T17:51:49.220Z,4.40
2022-09-20T17:54:18.029Z,4.28
2022-09-20T17:56:47.247Z,5.05
2022-09-20T17:59:16.823Z,3.92
2022-09-20T18:01:46.296Z,4.57
2022-09-20T18:04:16.025Z,4.68
2022-09-20T18:06:48.112Z,4.25
2022-09-20T18:09:17.911Z,4.07
2022-09-20T18:11:49.548Z,4.60
2022-09-20T18:14:19.207Z,4.35
2022-09-20T18:16:47.899Z,3.88
2022-09-20T18:19:17.408Z,4.10
2022-09-20T18:21:45.486Z,6.07
2022-09-20T18:24:13.679Z,5.18
2022-09-20T18:26:42.160Z,5.53
2022-09-20T18:29:12.511Z,5.03
2022-09-20T18:31:45.412Z,5.65
2022-09-20T18:34:18.021Z,5.25
2022-09-20T18:36:53.175Z,5.28
2022-09-20T18:39:23.155Z,5.00
2022-09-20T18:41:53.287Z,5.47
2022-09-20T18:44:22.799Z,5.20
2022-09-20T18:46:53.534Z,5.03
2022-09-20T18:49:22.018Z,6.20
2022-09-20T18:51:51.761Z,5.13
2022-09-20T18:54:20.243Z,5.20
2022-09-20T18:56:50.504Z,4.78
2022-09-20T18:59:21.111Z,4.47
2022-09-20T19:02:17.471Z,5.33
2022-09-20T19:05:23.250Z,4.72
2022-09-20T19:08:05.195Z,5.00
2022-09-20T19:10:42.769Z,5.13
2022-09-20T19:13:24.538Z,5.07
2022-09-20T19:16:13.071Z,4.72
2022-09-20T19:19:10.253Z,4.68
2022-09-20T19:21:45.094Z,5.13
2022-09-20T19:24:26.228Z,5.00
2022-09-20T19:26:54.696Z,4.57
2022-09-20T19:29:25.258Z,4.70
2022-09-20T19:31:56.368Z,4.97
2022-09-20T19:34:26.526Z,5.35
2022-09-20T19:37:09.767Z,5.28
2022-09-20T19:40:00.375Z,5.18
2022-09-20T19:42:39.402Z,4.88
2022-09-20T19:45:21.757Z,5.68
2022-09-20T19:47:59.466Z,4.97
2022-09-20T19:50:33.431Z,4.93
2022-09-20T19:53:03.963Z,5.88
2022-09-20T19:55:35.064Z,6.30
2022-09-20T19:58:03.970Z,4.93
2022-09-20T20:00:33.082Z,5.72
2022-09-20T20:03:01.716Z,5.35
2022-09-20T20:05:30.360Z,5.18
2022-09-20T20:08:14.303Z,5.22
2022-09-20T20:10:54.356Z,5.10
2022-09-20T20:13:51.257Z,5.07
2022-09-20T20:16:28.289Z,4.88
2022-09-20T20:19:09.795Z,5.28
2022-09-20T20:21:48.460Z,4.60
2022-09-20T20:24:25.988Z,5.40
2022-09-20T20:26:55.922Z,5.22
2022-09-20T20:29:24.097Z,5.22
2022-09-20T20:31:52.180Z,4.88
2022-09-20T20:34:20.709Z,5.78
2022-09-20T20:36:49.726Z,5.20
2022-09-20T20:39:17.921Z,6.38
2022-09-20T20:41:52.510Z,5.28
2022-09-20T20:44:22.234Z,5.60
2022-09-20T20:46:50.949Z,6.07
2022-09-20T20:49:19.223Z,5.45
2022-09-20T20:51:47.710Z,5.47
2022-09-20T20:54:16.241Z,5.13
2022-09-20T20:56:44.607Z,5.38
2022-09-20T20:59:12.756Z,5.38
2022-09-20T21:01:44.766Z,5.05
2022-09-20T21:04:15.377Z,5.78
2022-09-20T21:06:44.122Z,5.13
2022-09-20T21:09:13.602Z,5.35
2022-09-20T21:11:44.358Z,4.60
2022-09-20T21:14:13.236Z,4.47
2022-09-20T21:16:44.374Z,4.82
2022-09-20T21:19:15.167Z,4.88
2022-09-20T21:21:44.965Z,4.25
2022-09-20T21:24:15.377Z,4.18
2022-09-20T21:26:43.597Z,4.18
2022-09-20T21:29:13.506Z,4.25
2022-09-20T21:31:44.610Z,4.07
2022-09-20T21:34:14.308Z,3.63
2022-09-20T21:36:44.030Z,3.90
2022-09-20T21:39:12.889Z,3.58
2022-09-20T21:41:41.869Z,3.55
2022-09-20T21:44:12.223Z,3.08
2022-09-20T21:46:44.997Z,2.75
2022-09-20T21:49:14.452Z,3.22
2022-09-20T21:51:44.031Z,2.92
2022-09-20T21:54:12.527Z,3.63
2022-09-20T21:56:41.779Z,4.13
2022-09-20T21:59:10.065Z,2.83
2022-09-20T22:01:41.224Z,2.83
2022-09-20T22:04:12.280Z,3.50
2022-09-20T22:06:42.265Z,3.08
2022-09-20T22:09:12.453Z,2.90
2022-09-20T22:11:43.199Z,2.90
2022-09-20T22:14:12.321Z,2.60
2022-09-20T22:16:42.323Z,2.72
2022-09-20T22:19:13.951Z,2.88
2022-09-20T22:24:14.416Z,2.45
2022-09-20T22:26:45.227Z,2.70
2022-09-20T22:29:13.764Z,2.67
2022-09-20T22:31:46.156Z,2.75
2022-09-20T22:34:18.335Z,2.72
2022-09-20T22:36:47.082Z,3.45
2022-09-20T22:39:16.237Z,3.58
2022-09-20T22:41:45.061Z,3.40
2022-09-20T22:44:13.338Z,3.60
2022-09-20T22:46:42.247Z,3.28
2022-09-20T22:49:10.801Z,3.13
2022-09-20T22:51:40.457Z,2.70
2022-09-20T22:54:10.518Z,2.97
2022-09-20T22:56:41.475Z,4.63
2022-09-20T22:59:11.529Z,3.92
2022-09-20T23:01:42.622Z,3.08
2022-09-20T23:04:12.743Z,3.20
2022-09-20T23:06:44.374Z,3.25
2022-09-20T23:11:43.363Z,3.33
2022-09-20T23:14:15.189Z,2.60
2022-09-20T23:16:44.167Z,2.15
2022-09-20T23:19:13.283Z,2.15
2022-09-20T23:21:44.859Z,3.20
2022-09-20T23:26:42.635Z,2.25
2022-09-20T23:29:12.380Z,2.72
2022-09-20T23:31:45.283Z,2.42
2022-09-20T23:34:15.382Z,2.17
2022-09-20T23:36:45.990Z,2.20
2022-09-20T23:39:15.073Z,2.63
2022-09-20T23:41:45.923Z,2.08
2022-09-20T23:44:18.409Z,2.25
2022-09-20T23:46:46.742Z,2.05
2022-09-20T23:49:14.986Z,2.15
2022-09-20T23:51:44.627Z,2.45
2022-09-20T23:54:12.945Z,2.42
2022-09-20T23:56:42.889Z,2.30
2022-09-20T23:59:11.169Z,2.30
